sensor_id;sensor_type;location;lat;lon;timestamp;temperature;humidity
48589;DHT22;34369;51.174;6.738;2022-11-15T00:00:40;10.10;86.50
48589;DHT22;34369;51.174;6.738;2022-11-15T00:03:18;10.20;86.60
48589;DHT22;34369;51.174;6.738;2022-11-15T00:05:51;10.20;86.90
48589;DHT22;34369;51.174;6.738;2022-11-15T00:08:23;10.20;86.60
48589;DHT22;34369;51.174;6.738;2022-11-15T00:10:56;10.30;86.90
48589;DHT22;34369;51.174;6.738;2022-11-15T00:13:30;10.20;86.70
48589;DHT22;34369;51.174;6.738;2022-11-15T00:16:04;10.40;86.70
48589;DHT22;34369;51.174;6.738;2022-11-15T00:18:37;10.30;86.70
48589;DHT22;34369;51.174;6.738;2022-11-15T00:21:11;10.40;86.80
48589;DHT22;34369;51.174;6.738;2022-11-15T00:23:47;10.40;86.80
48589;DHT22;34369;51.174;6.738;2022-11-15T00:26:20;10.40;86.70
48589;DHT22;34369;51.174;6.738;2022-11-15T00:28:54;10.50;86.80
48589;DHT22;34369;51.174;6.738;2022-11-15T00:31:26;10.50;86.80
48589;DHT22;34369;51.174;6.738;2022-11-15T00:33:59;10.50;87.10
48589;DHT22;34369;51.174;6.738;2022-11-15T00:36:33;10.50;87.00
48589;DHT22;34369;51.174;6.738;2022-11-15T00:39:06;10.60;87.00
48589;DHT22;34369;51.174;6.738;2022-11-15T00:41:38;10.60;87.00
48589;DHT22;34369;51.174;6.738;2022-11-15T00:44:12;10.50;87.30
48589;DHT22;34369;51.174;6.738;2022-11-15T00:46:45;10.60;87.10
48589;DHT22;34369;51.174;6.738;2022-11-15T00:49:18;10.60;87.20
48589;DHT22;34369;51.174;6.738;2022-11-15T00:54:26;10.70;87.20
48589;DHT22;34369;51.174;6.738;2022-11-15T00:56:59;10.60;87.10
48589;DHT22;34369;51.174;6.738;2022-11-15T00:59:33;10.70;87.50
48589;DHT22;34369;51.174;6.738;2022-11-15T01:02:06;10.70;87.20
48589;DHT22;34369;51.174;6.738;2022-11-15T01:04:38;10.70;87.20
48589;DHT22;34369;51.174;6.738;2022-11-15T01:07:11;10.80;87.30
48589;DHT22;34369;51.174;6.738;2022-11-15T01:09:43;10.80;87.00
48589;DHT22;34369;51.174;6.738;2022-11-15T01:12:15;15.20;89.70
48589;DHT22;34369;51.174;6.738;2022-11-15T01:14:49;10.80;87.50
48589;DHT22;34369;51.174;6.738;2022-11-15T01:17:21;10.70;87.10
48589;DHT22;34369;51.174;6.738;2022-11-15T01:19:54;12.50;88.10
48589;DHT22;34369;51.174;6.738;2022-11-15T01:22:27;10.80;87.20
48589;DHT22;34369;51.174;6.738;2022-11-15T01:27:32;11.00;87.40
48589;DHT22;34369;51.174;6.738;2022-11-15T01:30:08;10.90;87.40
48589;DHT22;34369;51.174;6.738;2022-11-15T01:32:42;11.00;87.50
48589;DHT22;34369;51.174;6.738;2022-11-15T01:35:14;11.00;87.50
48589;DHT22;34369;51.174;6.738;2022-11-15T01:37:47;11.00;87.50
48589;DHT22;34369;51.174;6.738;2022-11-15T01:42:53;10.90;87.40
48589;DHT22;34369;51.174;6.738;2022-11-15T01:45:27;11.00;87.50
48589;DHT22;34369;51.174;6.738;2022-11-15T01:53:08;11.00;87.60
48589;DHT22;34369;51.174;6.738;2022-11-15T01:55:41;11.00;87.60
48589;DHT22;34369;51.174;6.738;2022-11-15T01:58:14;11.10;87.50
48589;DHT22;34369;51.174;6.738;2022-11-15T02:00:52;11.10;87.70
48589;DHT22;34369;51.174;6.738;2022-11-15T02:03:30;11.10;87.70
48589;DHT22;34369;51.174;6.738;2022-11-15T02:06:06;11.10;87.50
48589;DHT22;34369;51.174;6.738;2022-11-15T02:08:38;11.20;87.80
48589;DHT22;34369;51.174;6.738;2022-11-15T02:11:11;11.10;87.80
48589;DHT22;34369;51.174;6.738;2022-11-15T02:13:44;11.30;87.90
48589;DHT22;34369;51.174;6.738;2022-11-15T02:16:25;11.20;87.80
48589;DHT22;34369;51.174;6.738;2022-11-15T02:19:08;11.20;87.90
48589;DHT22;34369;51.174;6.738;2022-11-15T02:21:57;11.30;87.70
48589;DHT22;34369;51.174;6.738;2022-11-15T02:24:49;11.40;88.00
48589;DHT22;34369;51.174;6.738;2022-11-15T02:28:00;11.40;88.00
48589;DHT22;34369;51.174;6.738;2022-11-15T02:30:47;11.30;88.60
48589;DHT22;34369;51.174;6.738;2022-11-15T02:33:30;11.40;88.00
48589;DHT22;34369;51.174;6.738;2022-11-15T02:36:11;11.40;88.00
48589;DHT22;34369;51.174;6.738;2022-11-15T02:38:52;11.50;88.40
48589;DHT22;34369;51.174;6.738;2022-11-15T02:41:32;11.50;88.50
48589;DHT22;34369;51.174;6.738;2022-11-15T02:44:11;11.60;88.40
48589;DHT22;34369;51.174;6.738;2022-11-15T02:46:50;11.40;88.50
48589;DHT22;34369;51.174;6.738;2022-11-15T02:49:45;11.60;88.40
48589;DHT22;34369;51.174;6.738;2022-11-15T02:52:20;11.60;88.10
48589;DHT22;34369;51.174;6.738;2022-11-15T02:54:55;11.60;88.60
48589;DHT22;34369;51.174;6.738;2022-11-15T02:57:35;11.60;88.30
48589;DHT22;34369;51.174;6.738;2022-11-15T03:00:15;11.70;88.10
48589;DHT22;34369;51.174;6.738;2022-11-15T03:03:02;11.60;88.30
48589;DHT22;34369;51.174;6.738;2022-11-15T03:06:03;11.70;88.00
48589;DHT22;34369;51.174;6.738;2022-11-15T03:08:51;11.70;88.30
48589;DHT22;34369;51.174;6.738;2022-11-15T03:11:29;11.80;88.40
48589;DHT22;34369;51.174;6.738;2022-11-15T03:14:12;11.80;88.30
48589;DHT22;34369;51.174;6.738;2022-11-15T03:16:57;11.80;88.30
48589;DHT22;34369;51.174;6.738;2022-11-15T03:19:37;11.90;88.50
48589;DHT22;34369;51.174;6.738;2022-11-15T03:22:16;11.80;88.20
48589;DHT22;34369;51.174;6.738;2022-11-15T03:24:53;11.80;88.80
48589;DHT22;34369;51.174;6.738;2022-11-15T03:27:31;11.90;88.90
48589;DHT22;34369;51.174;6.738;2022-11-15T03:30:08;11.90;88.20
48589;DHT22;34369;51.174;6.738;2022-11-15T03:32:45;12.00;88.50
48589;DHT22;34369;51.174;6.738;2022-11-15T03:35:22;11.90;88.40
48589;DHT22;34369;51.174;6.738;2022-11-15T03:37:59;12.00;88.10
48589;DHT22;34369;51.174;6.738;2022-11-15T03:40:37;12.00;88.00
48589;DHT22;34369;51.174;6.738;2022-11-15T03:43:15;11.90;88.20
48589;DHT22;34369;51.174;6.738;2022-11-15T03:45:58;12.10;87.90
48589;DHT22;34369;51.174;6.738;2022-11-15T03:48:37;12.10;88.10
48589;DHT22;34369;51.174;6.738;2022-11-15T03:51:13;12.10;88.10
48589;DHT22;34369;51.174;6.738;2022-11-15T03:56:18;12.10;88.00
48589;DHT22;34369;51.174;6.738;2022-11-15T03:58:50;12.20;88.10
48589;DHT22;34369;51.174;6.738;2022-11-15T04:01:22;12.00;88.00
48589;DHT22;34369;51.174;6.738;2022-11-15T04:03:54;12.20;88.00
48589;DHT22;34369;51.174;6.738;2022-11-15T04:06:27;12.20;88.00
48589;DHT22;34369;51.174;6.738;2022-11-15T04:08:59;12.10;88.30
48589;DHT22;34369;51.174;6.738;2022-11-15T04:11:31;12.10;87.90
48589;DHT22;34369;51.174;6.738;2022-11-15T04:14:03;12.20;87.80
48589;DHT22;34369;51.174;6.738;2022-11-15T04:16:35;12.20;87.80
48589;DHT22;34369;51.174;6.738;2022-11-15T04:19:07;12.20;87.80
48589;DHT22;34369;51.174;6.738;2022-11-15T04:21:58;12.20;87.60
48589;DHT22;34369;51.174;6.738;2022-11-15T04:24:47;12.30;87.80
48589;DHT22;34369;51.174;6.738;2022-11-15T04:27:19;16.10;89.90
48589;DHT22;34369;51.174;6.738;2022-11-15T04:32:24;12.30;87.70
48589;DHT22;34369;51.174;6.738;2022-11-15T04:34:55;12.30;88.10
48589;DHT22;34369;51.174;6.738;2022-11-15T04:37:29;12.30;87.90
48589;DHT22;34369;51.174;6.738;2022-11-15T04:39:59;12.20;87.80
48589;DHT22;34369;51.174;6.738;2022-11-15T04:42:32;12.30;88.30
48589;DHT22;34369;51.174;6.738;2022-11-15T04:45:04;12.20;88.10
48589;DHT22;34369;51.174;6.738;2022-11-15T04:47:36;12.20;88.20
48589;DHT22;34369;51.174;6.738;2022-11-15T04:50:09;12.20;87.90
48589;DHT22;34369;51.174;6.738;2022-11-15T04:52:51;12.30;88.60
48589;DHT22;34369;51.174;6.738;2022-11-15T04:55:23;12.40;88.40
48589;DHT22;34369;51.174;6.738;2022-11-15T04:57:59;12.40;88.50
48589;DHT22;34369;51.174;6.738;2022-11-15T05:00:31;12.40;88.20
48589;DHT22;34369;51.174;6.738;2022-11-15T05:03:03;12.40;88.50
48589;DHT22;34369;51.174;6.738;2022-11-15T05:05:52;12.40;88.10
48589;DHT22;34369;51.174;6.738;2022-11-15T05:08:25;12.20;88.30
48589;DHT22;34369;51.174;6.738;2022-11-15T05:10:57;12.30;88.60
48589;DHT22;34369;51.174;6.738;2022-11-15T05:16:01;12.30;88.00
48589;DHT22;34369;51.174;6.738;2022-11-15T05:18:33;12.40;88.10
48589;DHT22;34369;51.174;6.738;2022-11-15T05:21:06;12.40;88.20
48589;DHT22;34369;51.174;6.738;2022-11-15T05:23:41;12.30;88.10
48589;DHT22;34369;51.174;6.738;2022-11-15T05:26:15;12.30;87.90
48589;DHT22;34369;51.174;6.738;2022-11-15T05:28:52;12.30;88.30
48589;DHT22;34369;51.174;6.738;2022-11-15T05:31:26;12.30;88.00
48589;DHT22;34369;51.174;6.738;2022-11-15T05:34:00;12.40;88.10
48589;DHT22;34369;51.174;6.738;2022-11-15T05:36:35;12.30;87.90
48589;DHT22;34369;51.174;6.738;2022-11-15T05:39:10;12.20;87.80
48589;DHT22;34369;51.174;6.738;2022-11-15T05:41:45;12.40;87.90
48589;DHT22;34369;51.174;6.738;2022-11-15T05:44:21;12.20;87.80
48589;DHT22;34369;51.174;6.738;2022-11-15T05:46:56;12.20;87.70
48589;DHT22;34369;51.174;6.738;2022-11-15T05:49:31;12.20;87.90
48589;DHT22;34369;51.174;6.738;2022-11-15T05:52:07;12.20;87.70
48589;DHT22;34369;51.174;6.738;2022-11-15T05:54:42;12.30;88.00
48589;DHT22;34369;51.174;6.738;2022-11-15T06:02:19;12.20;88.10
48589;DHT22;34369;51.174;6.738;2022-11-15T06:04:51;12.20;88.30
48589;DHT22;34369;51.174;6.738;2022-11-15T06:07:23;12.20;88.40
48589;DHT22;34369;51.174;6.738;2022-11-15T06:09:56;12.20;88.60
48589;DHT22;34369;51.174;6.738;2022-11-15T06:12:28;12.30;88.70
48589;DHT22;34369;51.174;6.738;2022-11-15T06:15:00;12.10;88.70
48589;DHT22;34369;51.174;6.738;2022-11-15T06:17:32;12.20;88.80
48589;DHT22;34369;51.174;6.738;2022-11-15T06:20:05;12.10;88.80
48589;DHT22;34369;51.174;6.738;2022-11-15T06:22:38;12.10;89.00
48589;DHT22;34369;51.174;6.738;2022-11-15T06:25:11;12.10;89.10
48589;DHT22;34369;51.174;6.738;2022-11-15T06:30:15;12.00;88.90
48589;DHT22;34369;51.174;6.738;2022-11-15T06:32:48;12.10;89.00
48589;DHT22;34369;51.174;6.738;2022-11-15T06:35:20;12.00;89.00
48589;DHT22;34369;51.174;6.738;2022-11-15T06:37:52;12.00;88.70
48589;DHT22;34369;51.174;6.738;2022-11-15T06:40:26;12.00;89.20
48589;DHT22;34369;51.174;6.738;2022-11-15T06:42:59;12.10;89.30
48589;DHT22;34369;51.174;6.738;2022-11-15T06:45:31;12.10;89.00
48589;DHT22;34369;51.174;6.738;2022-11-15T06:48:05;12.00;88.70
48589;DHT22;34369;51.174;6.738;2022-11-15T06:50:37;12.10;88.70
48589;DHT22;34369;51.174;6.738;2022-11-15T06:53:10;12.00;89.20
48589;DHT22;34369;51.174;6.738;2022-11-15T06:55:43;12.10;89.00
48589;DHT22;34369;51.174;6.738;2022-11-15T06:58:15;12.00;88.60
48589;DHT22;34369;51.174;6.738;2022-11-15T07:00:47;12.00;88.70
48589;DHT22;34369;51.174;6.738;2022-11-15T07:03:19;12.10;89.00
48589;DHT22;34369;51.174;6.738;2022-11-15T07:05:52;11.90;88.30
48589;DHT22;34369;51.174;6.738;2022-11-15T07:08:27;12.10;88.60
48589;DHT22;34369;51.174;6.738;2022-11-15T07:11:03;12.10;88.50
48589;DHT22;34369;51.174;6.738;2022-11-15T07:13:38;12.00;88.20
48589;DHT22;34369;51.174;6.738;2022-11-15T07:16:10;12.00;88.20
48589;DHT22;34369;51.174;6.738;2022-11-15T07:18:43;12.00;88.70
48589;DHT22;34369;51.174;6.738;2022-11-15T07:21:15;12.00;88.70
48589;DHT22;34369;51.174;6.738;2022-11-15T07:23:47;12.00;88.20
48589;DHT22;34369;51.174;6.738;2022-11-15T07:26:20;12.00;88.40
48589;DHT22;34369;51.174;6.738;2022-11-15T07:28:53;11.80;88.30
48589;DHT22;34369;51.174;6.738;2022-11-15T07:31:25;11.90;88.30
48589;DHT22;34369;51.174;6.738;2022-11-15T07:33:57;8.80;86.30
48589;DHT22;34369;51.174;6.738;2022-11-15T07:36:30;11.90;88.10
48589;DHT22;34369;51.174;6.738;2022-11-15T07:39:02;11.90;88.00
48589;DHT22;34369;51.174;6.738;2022-11-15T07:41:36;11.90;88.00
48589;DHT22;34369;51.174;6.738;2022-11-15T07:44:08;11.90;87.90
48589;DHT22;34369;51.174;6.738;2022-11-15T07:46:41;11.90;87.70
48589;DHT22;34369;51.174;6.738;2022-11-15T07:49:13;11.90;87.60
48589;DHT22;34369;51.174;6.738;2022-11-15T07:51:45;12.00;87.70
48589;DHT22;34369;51.174;6.738;2022-11-15T07:54:17;12.00;87.50
48589;DHT22;34369;51.174;6.738;2022-11-15T07:56:51;12.00;87.50
48589;DHT22;34369;51.174;6.738;2022-11-15T07:59:23;12.00;87.30
48589;DHT22;34369;51.174;6.738;2022-11-15T08:01:55;12.20;87.20
48589;DHT22;34369;51.174;6.738;2022-11-15T08:04:28;12.00;87.40
48589;DHT22;34369;51.174;6.738;2022-11-15T08:07:00;12.10;87.40
48589;DHT22;34369;51.174;6.738;2022-11-15T08:09:32;12.20;86.80
48589;DHT22;34369;51.174;6.738;2022-11-15T08:12:06;12.20;87.20
48589;DHT22;34369;51.174;6.738;2022-11-15T08:14:38;12.30;86.60
48589;DHT22;34369;51.174;6.738;2022-11-15T08:17:10;12.30;86.30
48589;DHT22;34369;51.174;6.738;2022-11-15T08:22:15;12.40;85.90
48589;DHT22;34369;51.174;6.738;2022-11-15T08:24:48;12.40;85.70
48589;DHT22;34369;51.174;6.738;2022-11-15T08:27:22;12.50;85.70
48589;DHT22;34369;51.174;6.738;2022-11-15T08:29:54;12.50;85.70
48589;DHT22;34369;51.174;6.738;2022-11-15T08:32:27;12.40;85.10
48589;DHT22;34369;51.174;6.738;2022-11-15T08:34:59;12.50;84.80
48589;DHT22;34369;51.174;6.738;2022-11-15T08:37:31;12.40;85.30
48589;DHT22;34369;51.174;6.738;2022-11-15T08:40:05;12.50;84.70
48589;DHT22;34369;51.174;6.738;2022-11-15T08:42:40;12.50;84.50
48589;DHT22;34369;51.174;6.738;2022-11-15T08:45:13;12.50;84.20
48589;DHT22;34369;51.174;6.738;2022-11-15T08:47:45;12.50;84.60
48589;DHT22;34369;51.174;6.738;2022-11-15T08:50:18;12.50;83.90
48589;DHT22;34369;51.174;6.738;2022-11-15T08:52:51;12.60;83.30
48589;DHT22;34369;51.174;6.738;2022-11-15T08:55:23;12.50;83.10
48589;DHT22;34369;51.174;6.738;2022-11-15T08:57:58;12.60;83.00
48589;DHT22;34369;51.174;6.738;2022-11-15T09:00:34;12.60;82.50
48589;DHT22;34369;51.174;6.738;2022-11-15T09:03:07;12.50;82.10
48589;DHT22;34369;51.174;6.738;2022-11-15T09:13:19;12.50;81.90
48589;DHT22;34369;51.174;6.738;2022-11-15T09:15:52;12.70;81.70
48589;DHT22;34369;51.174;6.738;2022-11-15T09:20:58;12.60;81.60
48589;DHT22;34369;51.174;6.738;2022-11-15T09:26:05;12.60;81.00
48589;DHT22;34369;51.174;6.738;2022-11-15T09:28:40;12.70;80.90
48589;DHT22;34369;51.174;6.738;2022-11-15T09:33:46;11.20;79.30
48589;DHT22;34369;51.174;6.738;2022-11-15T09:36:18;12.70;80.10
48589;DHT22;34369;51.174;6.738;2022-11-15T09:41:38;12.80;79.80
48589;DHT22;34369;51.174;6.738;2022-11-15T09:47:42;12.90;79.50
48589;DHT22;34369;51.174;6.738;2022-11-15T09:50:34;12.90;78.80
48589;DHT22;34369;51.174;6.738;2022-11-15T09:53:12;12.90;78.10
48589;DHT22;34369;51.174;6.738;2022-11-15T09:55:53;13.00;77.50
48589;DHT22;34369;51.174;6.738;2022-11-15T09:58:38;13.10;76.70
48589;DHT22;34369;51.174;6.738;2022-11-15T10:01:17;13.10;76.80
48589;DHT22;34369;51.174;6.738;2022-11-15T10:03:56;13.10;76.40
48589;DHT22;34369;51.174;6.738;2022-11-15T10:06:31;13.10;75.70
48589;DHT22;34369;51.174;6.738;2022-11-15T10:09:13;13.20;76.10
48589;DHT22;34369;51.174;6.738;2022-11-15T10:14:25;13.20;76.10
48589;DHT22;34369;51.174;6.738;2022-11-15T10:17:31;13.30;76.30
48589;DHT22;34369;51.174;6.738;2022-11-15T10:20:17;13.30;75.30
48589;DHT22;34369;51.174;6.738;2022-11-15T10:22:53;13.30;74.90
48589;DHT22;34369;51.174;6.738;2022-11-15T10:25:28;13.30;74.90
48589;DHT22;34369;51.174;6.738;2022-11-15T10:28:13;13.30;75.20
48589;DHT22;34369;51.174;6.738;2022-11-15T10:30:48;13.40;72.60
48589;DHT22;34369;51.174;6.738;2022-11-15T10:33:29;13.40;73.70
48589;DHT22;34369;51.174;6.738;2022-11-15T10:36:22;13.40;72.90
48589;DHT22;34369;51.174;6.738;2022-11-15T10:38:57;13.40;72.60
48589;DHT22;34369;51.174;6.738;2022-11-15T10:41:32;13.50;72.60
48589;DHT22;34369;51.174;6.738;2022-11-15T10:44:28;13.50;72.80
48589;DHT22;34369;51.174;6.738;2022-11-15T10:47:23;13.70;72.40
48589;DHT22;34369;51.174;6.738;2022-11-15T10:50:05;13.60;71.90
48589;DHT22;34369;51.174;6.738;2022-11-15T10:52:45;13.70;71.80
48589;DHT22;34369;51.174;6.738;2022-11-15T10:55:23;13.80;71.00
48589;DHT22;34369;51.174;6.738;2022-11-15T10:58:02;13.80;71.30
48589;DHT22;34369;51.174;6.738;2022-11-15T11:00:37;13.90;70.60
48589;DHT22;34369;51.174;6.738;2022-11-15T11:03:28;13.80;71.00
48589;DHT22;34369;51.174;6.738;2022-11-15T11:06:11;13.90;68.70
48589;DHT22;34369;51.174;6.738;2022-11-15T11:08:55;14.00;68.00
48589;DHT22;34369;51.174;6.738;2022-11-15T11:11:46;14.00;68.40
48589;DHT22;34369;51.174;6.738;2022-11-15T11:14:23;14.10;68.60
48589;DHT22;34369;51.174;6.738;2022-11-15T11:17:04;14.00;67.80
48589;DHT22;34369;51.174;6.738;2022-11-15T11:19:49;14.10;67.20
48589;DHT22;34369;51.174;6.738;2022-11-15T11:22:34;14.10;67.70
48589;DHT22;34369;51.174;6.738;2022-11-15T11:25:19;14.10;66.90
48589;DHT22;34369;51.174;6.738;2022-11-15T11:28:11;14.40;66.90
48589;DHT22;34369;51.174;6.738;2022-11-15T11:30:58;14.40;65.90
48589;DHT22;34369;51.174;6.738;2022-11-15T11:33:57;14.50;65.90
48589;DHT22;34369;51.174;6.738;2022-11-15T11:36:40;14.70;65.80
48589;DHT22;34369;51.174;6.738;2022-11-15T11:39:36;14.70;64.10
48589;DHT22;34369;51.174;6.738;2022-11-15T11:42:23;14.60;64.40
48589;DHT22;34369;51.174;6.738;2022-11-15T11:45:10;14.70;63.40
48589;DHT22;34369;51.174;6.738;2022-11-15T11:47:51;14.60;63.40
48589;DHT22;34369;51.174;6.738;2022-11-15T11:50:26;14.70;63.00
48589;DHT22;34369;51.174;6.738;2022-11-15T11:53:02;14.50;63.10
48589;DHT22;34369;51.174;6.738;2022-11-15T11:55:41;14.50;62.40
48589;DHT22;34369;51.174;6.738;2022-11-15T11:58:19;14.50;62.40
48589;DHT22;34369;51.174;6.738;2022-11-15T12:01:12;14.60;62.70
48589;DHT22;34369;51.174;6.738;2022-11-15T12:03:51;14.50;62.60
48589;DHT22;34369;51.174;6.738;2022-11-15T12:06:33;14.40;63.10
48589;DHT22;34369;51.174;6.738;2022-11-15T12:09:14;14.30;63.30
48589;DHT22;34369;51.174;6.738;2022-11-15T12:11:54;14.40;62.80
48589;DHT22;34369;51.174;6.738;2022-11-15T12:14:33;14.40;63.00
48589;DHT22;34369;51.174;6.738;2022-11-15T12:17:10;14.40;63.00
48589;DHT22;34369;51.174;6.738;2022-11-15T12:22:20;14.40;62.40
48589;DHT22;34369;51.174;6.738;2022-11-15T12:24:57;14.40;62.80
48589;DHT22;34369;51.174;6.738;2022-11-15T12:27:40;14.40;62.90
48589;DHT22;34369;51.174;6.738;2022-11-15T12:30:18;14.40;62.90
48589;DHT22;34369;51.174;6.738;2022-11-15T12:32:54;14.40;62.60
48589;DHT22;34369;51.174;6.738;2022-11-15T12:35:30;14.30;62.70
48589;DHT22;34369;51.174;6.738;2022-11-15T12:38:10;14.40;63.20
48589;DHT22;34369;51.174;6.738;2022-11-15T12:41:12;14.40;63.20
48589;DHT22;34369;51.174;6.738;2022-11-15T12:43:51;14.40;63.50
48589;DHT22;34369;51.174;6.738;2022-11-15T12:47:02;14.40;62.80
48589;DHT22;34369;51.174;6.738;2022-11-15T12:49:46;14.40;63.60
48589;DHT22;34369;51.174;6.738;2022-11-15T12:52:19;14.40;63.40
48589;DHT22;34369;51.174;6.738;2022-11-15T12:55:14;14.30;63.80
48589;DHT22;34369;51.174;6.738;2022-11-15T12:58:26;14.50;63.10
48589;DHT22;34369;51.174;6.738;2022-11-15T13:01:01;14.40;63.40
48589;DHT22;34369;51.174;6.738;2022-11-15T13:04:09;14.50;63.70
48589;DHT22;34369;51.174;6.738;2022-11-15T13:06:46;14.50;63.90
48589;DHT22;34369;51.174;6.738;2022-11-15T13:09:51;14.50;63.60
48589;DHT22;34369;51.174;6.738;2022-11-15T13:12:52;14.70;64.00
48589;DHT22;34369;51.174;6.738;2022-11-15T13:15:52;14.40;64.00
48589;DHT22;34369;51.174;6.738;2022-11-15T13:18:36;14.60;64.00
48589;DHT22;34369;51.174;6.738;2022-11-15T13:21:21;14.60;63.80
48589;DHT22;34369;51.174;6.738;2022-11-15T13:24:14;14.70;63.90
48589;DHT22;34369;51.174;6.738;2022-11-15T13:26:47;14.50;63.60
48589;DHT22;34369;51.174;6.738;2022-11-15T13:29:20;14.50;63.80
48589;DHT22;34369;51.174;6.738;2022-11-15T13:31:53;14.50;64.10
48589;DHT22;34369;51.174;6.738;2022-11-15T13:34:31;14.50;64.00
48589;DHT22;34369;51.174;6.738;2022-11-15T13:37:10;14.50;64.00
48589;DHT22;34369;51.174;6.738;2022-11-15T13:42:20;14.50;64.20
48589;DHT22;34369;51.174;6.738;2022-11-15T13:44:56;14.40;64.50
48589;DHT22;34369;51.174;6.738;2022-11-15T13:47:30;14.50;64.10
48589;DHT22;34369;51.174;6.738;2022-11-15T13:50:04;14.50;64.10
48589;DHT22;34369;51.174;6.738;2022-11-15T13:52:42;14.40;63.80
48589;DHT22;34369;51.174;6.738;2022-11-15T13:55:18;14.40;63.70
48589;DHT22;34369;51.174;6.738;2022-11-15T13:57:54;14.40;64.40
48589;DHT22;34369;51.174;6.738;2022-11-15T14:00:35;14.30;64.40
48589;DHT22;34369;51.174;6.738;2022-11-15T14:03:17;14.40;64.50
48589;DHT22;34369;51.174;6.738;2022-11-15T14:06:04;14.40;64.60
48589;DHT22;34369;51.174;6.738;2022-11-15T14:08:42;14.40;64.90
48589;DHT22;34369;51.174;6.738;2022-11-15T14:11:29;14.30;64.90
48589;DHT22;34369;51.174;6.738;2022-11-15T14:14:14;14.40;64.90
48589;DHT22;34369;51.174;6.738;2022-11-15T14:16:49;14.30;65.10
48589;DHT22;34369;51.174;6.738;2022-11-15T14:19:36;14.30;65.40
48589;DHT22;34369;51.174;6.738;2022-11-15T14:22:14;14.30;65.80
48589;DHT22;34369;51.174;6.738;2022-11-15T14:25:05;14.30;65.60
48589;DHT22;34369;51.174;6.738;2022-11-15T14:28:07;14.30;65.60
48589;DHT22;34369;51.174;6.738;2022-11-15T14:30:44;14.30;65.60
48589;DHT22;34369;51.174;6.738;2022-11-15T14:33:23;14.20;65.70
48589;DHT22;34369;51.174;6.738;2022-11-15T14:36:03;14.30;66.10
48589;DHT22;34369;51.174;6.738;2022-11-15T14:38:38;14.30;66.50
48589;DHT22;34369;51.174;6.738;2022-11-15T14:41:17;14.20;66.00
48589;DHT22;34369;51.174;6.738;2022-11-15T14:43:52;14.20;66.00
48589;DHT22;34369;51.174;6.738;2022-11-15T14:46:24;13.90;66.10
48589;DHT22;34369;51.174;6.738;2022-11-15T14:51:29;14.10;66.40
48589;DHT22;34369;51.174;6.738;2022-11-15T14:54:05;14.20;66.60
48589;DHT22;34369;51.174;6.738;2022-11-15T14:56:39;14.00;67.10
48589;DHT22;34369;51.174;6.738;2022-11-15T14:59:13;14.10;66.80
48589;DHT22;34369;51.174;6.738;2022-11-15T15:01:47;14.20;66.90
48589;DHT22;34369;51.174;6.738;2022-11-15T15:04:19;14.10;66.80
48589;DHT22;34369;51.174;6.738;2022-11-15T15:06:54;14.10;67.20
48589;DHT22;34369;51.174;6.738;2022-11-15T15:09:28;14.00;66.90
48589;DHT22;34369;51.174;6.738;2022-11-15T15:12:00;14.10;67.10
48589;DHT22;34369;51.174;6.738;2022-11-15T15:14:32;14.00;67.10
48589;DHT22;34369;51.174;6.738;2022-11-15T15:17:05;14.00;67.10
48589;DHT22;34369;51.174;6.738;2022-11-15T15:19:37;14.00;67.10
48589;DHT22;34369;51.174;6.738;2022-11-15T15:22:13;14.00;67.20
48589;DHT22;34369;51.174;6.738;2022-11-15T15:24:47;14.00;67.40
48589;DHT22;34369;51.174;6.738;2022-11-15T15:27:20;14.00;67.20
48589;DHT22;34369;51.174;6.738;2022-11-15T15:29:52;14.00;67.00
48589;DHT22;34369;51.174;6.738;2022-11-15T15:32:24;13.90;67.20
48589;DHT22;34369;51.174;6.738;2022-11-15T15:34:56;14.10;67.50
48589;DHT22;34369;51.174;6.738;2022-11-15T15:37:29;14.00;67.40
48589;DHT22;34369;51.174;6.738;2022-11-15T15:40:13;13.90;67.80
48589;DHT22;34369;51.174;6.738;2022-11-15T15:42:47;13.90;67.50
48589;DHT22;34369;51.174;6.738;2022-11-15T15:45:20;13.90;67.90
48589;DHT22;34369;51.174;6.738;2022-11-15T15:47:55;13.80;67.60
48589;DHT22;34369;51.174;6.738;2022-11-15T15:50:29;13.80;67.70
48589;DHT22;34369;51.174;6.738;2022-11-15T15:53:04;14.50;68.20
48589;DHT22;34369;51.174;6.738;2022-11-15T15:55:38;13.80;68.30
48589;DHT22;34369;51.174;6.738;2022-11-15T15:58:10;13.80;69.00
48589;DHT22;34369;51.174;6.738;2022-11-15T16:00:43;13.80;68.00
48589;DHT22;34369;51.174;6.738;2022-11-15T16:03:22;13.90;68.20
48589;DHT22;34369;51.174;6.738;2022-11-15T16:05:55;13.80;68.60
48589;DHT22;34369;51.174;6.738;2022-11-15T16:08:28;13.80;69.20
48589;DHT22;34369;51.174;6.738;2022-11-15T16:11:03;13.80;68.30
48589;DHT22;34369;51.174;6.738;2022-11-15T16:13:36;13.80;68.40
48589;DHT22;34369;51.174;6.738;2022-11-15T16:16:09;13.70;68.40
48589;DHT22;34369;51.174;6.738;2022-11-15T16:18:45;13.80;68.50
48589;DHT22;34369;51.174;6.738;2022-11-15T16:23:50;13.80;68.70
48589;DHT22;34369;51.174;6.738;2022-11-15T16:26:25;13.70;68.70
48589;DHT22;34369;51.174;6.738;2022-11-15T16:28:58;13.80;68.80
48589;DHT22;34369;51.174;6.738;2022-11-15T16:31:30;13.80;68.90
48589;DHT22;34369;51.174;6.738;2022-11-15T16:34:02;13.60;68.80
48589;DHT22;34369;51.174;6.738;2022-11-15T16:36:34;13.70;68.80
48589;DHT22;34369;51.174;6.738;2022-11-15T16:39:10;13.70;68.90
48589;DHT22;34369;51.174;6.738;2022-11-15T16:41:46;13.70;69.00
48589;DHT22;34369;51.174;6.738;2022-11-15T16:44:18;13.70;69.10
48589;DHT22;34369;51.174;6.738;2022-11-15T16:46:50;16.60;70.70
48589;DHT22;34369;51.174;6.738;2022-11-15T16:49:23;13.70;69.20
48589;DHT22;34369;51.174;6.738;2022-11-15T16:51:55;13.70;69.20
48589;DHT22;34369;51.174;6.738;2022-11-15T16:54:27;13.70;69.60
48589;DHT22;34369;51.174;6.738;2022-11-15T16:57:00;13.80;69.40
48589;DHT22;34369;51.174;6.738;2022-11-15T16:59:32;13.80;69.50
48589;DHT22;34369;51.174;6.738;2022-11-15T17:02:10;13.70;69.40
48589;DHT22;34369;51.174;6.738;2022-11-15T17:04:42;13.60;69.90
48589;DHT22;34369;51.174;6.738;2022-11-15T17:07:14;13.70;70.00
48589;DHT22;34369;51.174;6.738;2022-11-15T17:09:46;13.60;69.60
48589;DHT22;34369;51.174;6.738;2022-11-15T17:12:19;13.70;69.70
48589;DHT22;34369;51.174;6.738;2022-11-15T17:14:51;13.70;69.80
48589;DHT22;34369;51.174;6.738;2022-11-15T17:17:23;13.70;69.80
48589;DHT22;34369;51.174;6.738;2022-11-15T17:22:28;13.80;69.90
48589;DHT22;34369;51.174;6.738;2022-11-15T17:25:00;13.70;70.20
48589;DHT22;34369;51.174;6.738;2022-11-15T17:27:33;13.80;70.00
48589;DHT22;34369;51.174;6.738;2022-11-15T17:30:07;13.60;69.90
48589;DHT22;34369;51.174;6.738;2022-11-15T17:32:40;13.60;70.00
48589;DHT22;34369;51.174;6.738;2022-11-15T17:35:13;13.80;70.20
48589;DHT22;34369;51.174;6.738;2022-11-15T17:37:44;13.70;70.60